Time;durP1;ratioP1;P1;durP2;ratioP2;P2;SDS_P1;SDS_P2;PMS_P1;PMS_P2;Temp;Humidity;BMP_temperature;BMP_pressure;BME280_temperature;BME280_humidity;BME280_pressure;Samples;Min_cycle;Max_cycle;Signal;HPM_P1;HPM_P2
2021/06/17 00:00:50;;;;;;;6.30;5.70;;;19.90;93.30;;;;;;5054945;28;20604;-45
2021/06/17 00:03:18;;;;;;;6.25;5.50;;;19.90;93.50;;;;;;5055015;28;20313;-45
2021/06/17 00:05:46;;;;;;;6.38;5.78;;;19.90;93.70;;;;;;5055014;28;20204;-45
2021/06/17 00:08:14;;;;;;;5.38;4.78;;;19.70;93.80;;;;;;5055040;28;20207;-44
2021/06/17 00:10:44;;;;;;;6.50;5.25;;;19.70;94.00;;;;;;5054903;28;20218;-48
2021/06/17 00:13:15;;;;;;;5.47;4.97;;;19.70;94.00;;;;;;5055031;28;20299;-43
2021/06/17 00:15:44;;;;;;;7.07;5.43;;;19.70;94.10;;;;;;5054765;28;20310;-44
2021/06/17 00:18:14;;;;;;;4.90;4.50;;;19.70;94.10;;;;;;5054704;28;20273;-44
2021/06/17 00:20:42;;;;;;;5.55;5.05;;;19.70;94.30;;;;;;5054477;28;20303;-43
2021/06/17 00:23:11;;;;;;;7.32;6.03;;;19.60;94.30;;;;;;5054673;28;20208;-45
2021/06/17 00:25:39;;;;;;;7.50;6.18;;;19.60;94.40;;;;;;5054699;28;20270;-44
2021/06/17 00:28:08;;;;;;;8.13;6.18;;;19.60;94.50;;;;;;5054589;28;20386;-43
2021/06/17 00:30:36;;;;;;;6.38;5.78;;;19.50;94.70;;;;;;5054400;28;20290;-42
2021/06/17 00:33:05;;;;;;;10.68;6.50;;;19.50;94.80;;;;;;5054407;28;20247;-44
2021/06/17 00:35:35;;;;;;;6.60;5.53;;;19.50;95.00;;;;;;5054234;28;20290;-43
2021/06/17 00:38:04;;;;;;;8.15;6.35;;;19.40;95.20;;;;;;5054295;28;20598;-45
2021/06/17 00:40:34;;;;;;;8.18;6.55;;;19.30;95.40;;;;;;5054508;28;20685;-44
2021/06/17 00:43:03;;;;;;;6.78;6.18;;;19.30;95.70;;;;;;5054399;28;20295;-42
2021/06/17 00:45:33;;;;;;;8.35;6.70;;;19.20;96.00;;;;;;5054011;28;20754;-42
2021/06/17 00:48:02;;;;;;;6.13;5.63;;;19.10;96.30;;;;;;5054150;28;20214;-42
2021/06/17 00:50:36;;;;;;;8.63;6.13;;;19.00;96.50;;;;;;5054401;28;20259;-43
2021/06/17 00:53:06;;;;;;;8.60;6.50;;;19.00;96.70;;;;;;5054207;28;20291;-44
2021/06/17 00:55:34;;;;;;;7.03;5.85;;;19.00;96.90;;;;;;5053983;28;20694;-43
2021/06/17 00:58:02;;;;;;;7.32;6.05;;;19.00;97.10;;;;;;5053984;28;20211;-45
2021/06/17 01:00:30;;;;;;;14.20;7.10;;;19.00;97.20;;;;;;5053837;28;20214;-45
2021/06/17 01:02:58;;;;;;;7.88;6.80;;;19.00;97.40;;;;;;5054155;28;20295;-43
2021/06/17 01:05:27;;;;;;;6.75;6.15;;;19.00;97.90;;;;;;5052930;28;20299;-46
2021/06/17 01:08:08;;;;;;;7.20;6.28;;;19.00;97.80;;;;;;5053683;28;20573;-45
2021/06/17 01:10:42;;;;;;;8.48;6.57;;;19.00;97.90;;;;;;5053768;28;20234;-45
2021/06/17 01:13:16;;;;;;;10.93;7.75;;;19.00;98.00;;;;;;5053695;28;20299;-46
2021/06/17 01:16:10;;;;;;;9.50;7.72;;;18.90;98.20;;;;;;5054017;28;20255;-42
2021/06/17 01:18:44;;;;;;;8.55;7.75;;;18.90;98.30;;;;;;5053656;28;20302;-46
2021/06/17 01:21:20;;;;;;;8.45;7.65;;;18.90;98.50;;;;;;5053409;28;20244;-45
2021/06/17 01:24:28;;;;;;;7.55;6.82;;;18.90;98.80;;;;;;5053493;28;20298;-46
2021/06/17 01:27:10;;;;;;;8.27;7.22;;;18.90;99.10;;;;;;5053673;28;20652;-43
2021/06/17 01:29:44;;;;;;;8.10;6.60;;;18.80;99.90;;;;;;5053426;28;20211;-46
2021/06/17 01:32:14;;;;;;;10.77;7.50;;;18.70;99.30;;;;;;5053238;28;20307;-43
2021/06/17 01:34:43;;;;;;;7.32;6.72;;;18.70;99.40;;;;;;5053294;28;20508;-44
2021/06/17 01:37:14;;;;;;;8.82;6.75;;;18.70;99.50;;;;;;5053432;28;20219;-45
2021/06/17 01:39:44;;;;;;;8.43;6.53;;;18.70;99.60;;;;;;5053495;28;20307;-46
2021/06/17 01:42:13;;;;;;;7.47;6.78;;;18.60;99.70;;;;;;5053235;28;20611;-47
2021/06/17 01:44:43;;;;;;;8.85;6.68;;;;;;;;;;5053517;28;20212;-44
2021/06/17 01:47:14;;;;;;;6.88;6.28;;;18.60;99.70;;;;;;5053331;28;20291;-43
2021/06/17 01:49:43;;;;;;;8.20;7.20;;;18.60;99.90;;;;;;5053252;28;20762;-49
2021/06/17 01:52:11;;;;;;;7.53;6.85;;;18.50;99.90;;;;;;5053237;28;20215;-47
2021/06/17 01:54:42;;;;;;;7.50;6.32;;;18.50;99.90;;;;;;5053094;28;20216;-48
2021/06/17 01:57:10;;;;;;;7.65;6.63;;;18.50;99.90;;;;;;5053285;28;20234;-44
2021/06/17 01:59:40;;;;;;;7.97;6.97;;;18.50;99.90;;;;;;5052623;28;20242;-42
2021/06/17 02:02:10;;;;;;;7.88;6.05;;;18.40;99.90;;;;;;5053180;28;20208;-43
2021/06/17 02:04:39;;;;;;;7.90;6.60;;;18.40;99.90;;;;;;5053102;28;20219;-42
2021/06/17 02:07:09;;;;;;;7.68;6.60;;;18.30;99.90;;;;;;5052753;28;20706;-42
2021/06/17 02:09:37;;;;;;;8.07;7.00;;;18.30;99.90;;;;;;5053083;28;20589;-44
2021/06/17 02:12:06;;;;;;;6.80;6.20;;;18.30;99.90;;;;;;5052961;28;20290;-43
2021/06/17 02:14:35;;;;;;;7.28;6.55;;;18.20;99.90;;;;;;5052610;28;20251;-43
2021/06/17 02:17:04;;;;;;;7.60;6.85;;;18.20;99.90;;;;;;5052587;28;20220;-44
2021/06/17 02:19:34;;;;;;;7.70;6.10;;;18.10;99.90;;;;;;5052508;28;20224;-42
2021/06/17 02:22:04;;;;;;;6.57;5.97;;;18.00;99.90;;;;;;5052617;28;20254;-44
2021/06/17 02:24:36;;;;;;;7.60;6.90;;;18.00;99.90;;;;;;5052598;28;20672;-44
2021/06/17 02:27:07;;;;;;;7.28;6.47;;;18.00;99.90;;;;;;5052590;28;20200;-45
2021/06/17 02:29:39;;;;;;;7.50;6.80;;;18.00;99.90;;;;;;5052664;28;20673;-45
2021/06/17 02:32:10;;;;;;;9.55;6.57;;;18.00;99.90;;;;;;5052393;28;20306;-43
2021/06/17 02:34:41;;;;;;;10.80;7.50;;;18.00;99.90;;;;;;5052673;28;20244;-43
2021/06/17 02:37:10;;;;;;;8.90;7.32;;;18.00;99.90;;;;;;5052437;28;20327;-47
2021/06/17 02:39:38;;;;;;;7.63;6.25;;;18.00;99.90;;;;;;5052343;28;20240;-43
2021/06/17 02:42:08;;;;;;;8.35;6.60;;;17.90;99.90;;;;;;5052018;28;20247;-45
2021/06/17 02:44:37;;;;;;;8.02;7.25;;;17.90;99.90;;;;;;5051997;28;20256;-46
2021/06/17 02:47:06;;;;;;;8.98;6.65;;;17.80;99.90;;;;;;5052095;28;20561;-43
2021/06/17 02:49:34;;;;;;;9.00;7.85;;;17.80;99.90;;;;;;5051912;28;20295;-44
2021/06/17 02:52:04;;;;;;;8.90;7.90;;;17.80;99.90;;;;;;5052042;28;20204;-48
2021/06/17 02:54:32;;;;;;;8.18;7.10;;;17.70;99.90;;;;;;5052140;28;20234;-45
2021/06/17 02:57:22;;;;;;;6.88;6.22;;;17.70;99.90;;;;;;5052098;28;20277;-45
2021/06/17 03:00:04;;;;;;;9.07;7.35;;;17.70;99.90;;;;;;5052151;28;20216;-43
2021/06/17 03:02:42;;;;;;;6.25;5.60;;;17.70;99.90;;;;;;5051799;28;20232;-44
2021/06/17 03:05:16;;;;;;;7.07;6.38;;;17.70;99.90;;;;;;5051997;28;20248;-43
2021/06/17 03:07:50;;;;;;;7.22;6.53;;;17.60;99.90;;;;;;5052083;28;20204;-44
2021/06/17 03:10:22;;;;;;;7.72;6.82;;;17.60;99.90;;;;;;5052043;28;20218;-44
2021/06/17 03:12:52;;;;;;;8.40;7.55;;;17.60;99.90;;;;;;5051944;28;20693;-44
2021/06/17 03:15:21;;;;;;;10.00;7.75;;;17.60;99.90;;;;;;5051650;28;20212;-43
2021/06/17 03:17:51;;;;;;;7.78;6.75;;;17.60;99.90;;;;;;5051624;28;20315;-44
2021/06/17 03:20:20;;;;;;;8.70;7.90;;;17.60;99.90;;;;;;5051722;28;20686;-44
2021/06/17 03:22:53;;;;;;;8.85;6.65;;;17.60;99.90;;;;;;5051735;28;20275;-46
2021/06/17 03:25:24;;;;;;;7.80;6.93;;;17.60;99.90;;;;;;5051900;28;20250;-45
2021/06/17 03:27:54;;;;;;;7.72;6.78;;;17.60;99.90;;;;;;5053294;28;20247;-45
2021/06/17 03:30:25;;;;;;;14.45;7.40;;;17.60;99.90;;;;;;5055757;28;20663;-46
2021/06/17 03:32:55;;;;;;;9.27;7.70;;;17.60;99.90;;;;;;5055847;28;20212;-43
2021/06/17 03:35:28;;;;;;;8.38;7.47;;;17.60;99.90;;;;;;5055914;28;20270;-44
2021/06/17 03:37:58;;;;;;;8.15;7.32;;;17.60;99.90;;;;;;5055733;28;20314;-43
2021/06/17 03:40:27;;;;;;;8.45;7.55;;;17.60;99.90;;;;;;5055727;28;20691;-43
2021/06/17 03:42:56;;;;;;;7.68;6.97;;;17.60;99.90;;;;;;5055457;28;20250;-43
2021/06/17 03:45:26;;;;;;;8.45;7.65;;;17.60;99.90;;;;;;5055549;28;20703;-44
2021/06/17 03:47:55;;;;;;;7.30;6.60;;;17.60;99.90;;;;;;5055675;28;20290;-45
2021/06/17 03:50:25;;;;;;;7.38;6.72;;;17.60;99.90;;;;;;5055492;28;20208;-46
2021/06/17 03:52:57;;;;;;;7.90;7.10;;;17.70;99.90;;;;;;5055541;28;20218;-43
2021/06/17 03:55:26;;;;;;;8.60;7.20;;;17.70;99.90;;;;;;5055223;28;20649;-45
2021/06/17 03:57:57;;;;;;;9.80;7.50;;;17.70;99.90;;;;;;5055502;28;20238;-46
2021/06/17 04:00:27;;;;;;;9.23;8.35;;;17.70;99.90;;;;;;5055347;28;20208;-45
2021/06/17 04:02:55;;;;;;;11.30;7.53;;;17.70;99.90;;;;;;5055067;28;20208;-45
2021/06/17 04:05:23;;;;;;;8.20;7.35;;;17.70;99.90;;;;;;5054845;28;20349;-46
2021/06/17 04:07:57;;;;;;;7.80;6.95;;;17.70;99.90;;;;;;5054555;28;20295;-46
2021/06/17 04:10:27;;;;;;;8.68;7.38;;;17.80;99.90;;;;;;5055223;28;20215;-47
2021/06/17 04:12:57;;;;;;;14.20;10.23;;;17.90;99.90;;;;;;5055093;28;20211;-42
2021/06/17 04:15:27;;;;;;;10.10;8.63;;;18.00;99.90;;;;;;5054779;28;20208;-45
2021/06/17 04:17:58;;;;;;;9.30;8.35;;;18.10;99.90;;;;;;5055065;28;20605;-44
2021/06/17 04:20:30;;;;;;;10.25;7.93;;;18.20;99.90;;;;;;5054343;28;20208;-42
2021/06/17 04:22:59;;;;;;;9.25;8.35;;;18.30;99.90;;;;;;5054608;28;20208;-43
2021/06/17 04:25:29;;;;;;;13.27;8.82;;;18.40;99.90;;;;;;5054796;28;20632;-42
2021/06/17 04:28:01;;;;;;;11.60;9.50;;;18.60;99.90;;;;;;5054679;28;20230;-43
2021/06/17 04:30:31;;;;;;;11.40;9.70;;;18.70;99.90;;;;;;5054708;28;20291;-45
2021/06/17 04:33:02;;;;;;;10.55;9.50;;;18.80;99.90;;;;;;5054636;28;20224;-44
2021/06/17 04:35:30;;;;;;;10.10;9.10;;;18.90;99.90;;;;;;5054673;28;20208;-43
2021/06/17 04:37:59;;;;;;;13.40;9.45;;;19.00;99.90;;;;;;5054475;28;20314;-43
2021/06/17 04:40:29;;;;;;;11.98;9.25;;;19.00;99.90;;;;;;5053413;28;20291;-46
2021/06/17 04:43:00;;;;;;;9.40;8.50;;;19.10;99.90;;;;;;5054543;28;20403;-45
2021/06/17 04:45:29;;;;;;;9.35;7.80;;;19.20;99.90;;;;;;5054444;28;20295;-44
2021/06/17 04:48:00;;;;;;;11.85;8.55;;;19.20;99.90;;;;;;5054678;28;20295;-45
2021/06/17 04:50:29;;;;;;;11.50;9.30;;;19.30;99.90;;;;;;5054270;28;20230;-44
2021/06/17 04:53:13;;;;;;;12.65;7.03;;;19.40;99.90;;;;;;5054250;28;20738;-44
2021/06/17 04:55:51;;;;;;;11.85;8.13;;;19.40;99.40;;;;;;5054381;28;20235;-43
2021/06/17 04:58:20;;;;;;;7.50;6.80;;;19.50;99.20;;;;;;5054434;28;20314;-47
2021/06/17 05:00:48;;;;;;;10.18;8.65;;;19.60;98.90;;;;;;5054100;28;20307;-43
2021/06/17 05:03:17;;;;;;;9.77;8.88;;;19.70;98.60;;;;;;5054379;28;20633;-43
2021/06/17 05:05:46;;;;;;;9.90;8.32;;;19.80;98.30;;;;;;5054121;28;20649;-43
2021/06/17 05:11:02;;;;;;;9.93;8.88;;;20.00;97.70;;;;;;5054132;28;20585;-44
2021/06/17 05:13:31;;;;;;;8.07;7.28;;;20.20;97.50;;;;;;5054158;28;20371;-43
2021/06/17 05:16:01;;;;;;;8.75;7.95;;;20.30;97.20;;;;;;5053948;28;20218;-46
2021/06/17 05:18:29;;;;;;;10.68;9.73;;;20.40;96.80;;;;;;5053927;28;20220;-43
2021/06/17 05:20:58;;;;;;;11.77;10.65;;;20.50;96.60;;;;;;5053468;28;20270;-46
2021/06/17 05:23:27;;;;;;;12.07;10.60;;;20.50;96.70;;;;;;5053837;28;20291;-46
2021/06/17 05:25:57;;;;;;;14.00;10.40;;;20.60;96.60;;;;;;5053641;28;20762;-48
2021/06/17 05:28:29;;;;;;;12.27;11.18;;;20.70;96.20;;;;;;5053723;28;20762;-44
2021/06/17 05:30:59;;;;;;;14.57;11.25;;;20.80;96.00;;;;;;5053571;28;20579;-44
2021/06/17 05:33:27;;;;;;;12.00;9.23;;;20.80;95.90;;;;;;5053246;28;20724;-44
2021/06/17 05:35:55;;;;;;;10.20;9.20;;;20.90;95.70;;;;;;5053411;28;20306;-45
2021/06/17 05:38:25;;;;;;;10.00;8.98;;;21.00;95.50;;;;;;5053552;28;20220;-44
2021/06/17 05:40:53;;;;;;;11.60;7.85;;;21.10;95.40;;;;;;5053391;28;20208;-46
2021/06/17 05:43:22;;;;;;;8.60;7.70;;;21.20;95.20;;;;;;5053337;28;20212;-46
2021/06/17 05:45:52;;;;;;;7.47;6.63;;;21.20;94.90;;;;;;5053178;28;20270;-45
2021/06/17 05:48:20;;;;;;;8.52;7.07;;;21.30;94.60;;;;;;5053041;28;20212;-46
2021/06/17 05:50:47;;;;;;;6.93;6.25;;;21.30;94.40;;;;;;5052805;28;20250;-45
2021/06/17 05:53:15;;;;;;;13.15;7.43;;;21.30;94.20;;;;;;5053163;28;20208;-45
2021/06/17 05:55:43;;;;;;;10.40;7.55;;;21.30;94.20;;;;;;5052807;28;20667;-44
2021/06/17 05:58:12;;;;;;;9.52;6.93;;;21.40;94.20;;;;;;5052860;28;20671;-44
2021/06/17 06:00:41;;;;;;;23.77;9.05;;;21.40;94.10;;;;;;5052636;28;20232;-45
2021/06/17 06:03:10;;;;;;;8.85;7.72;;;21.50;94.00;;;;;;5052791;28;20286;-43
2021/06/17 06:05:38;;;;;;;9.32;6.97;;;21.50;93.90;;;;;;5053274;28;20214;-44
2021/06/17 06:08:10;;;;;;;11.25;7.03;;;21.50;93.70;;;;;;5052550;28;20254;-42
2021/06/17 06:10:39;;;;;;;8.40;7.13;;;21.60;93.50;;;;;;5052581;28;20214;-46
2021/06/17 06:13:07;;;;;;;12.23;7.65;;;21.60;93.40;;;;;;5052460;28;20239;-45
2021/06/17 06:15:35;;;;;;;8.55;6.63;;;21.70;93.30;;;;;;5052478;28;20235;-42
2021/06/17 06:18:08;;;;;;;9.93;8.05;;;21.70;93.20;;;;;;5052155;28;20249;-44
2021/06/17 06:20:38;;;;;;;9.10;8.20;;;21.80;93.20;;;;;;5052060;28;20250;-44
2021/06/17 06:23:08;;;;;;;23.65;8.77;;;21.90;93.10;;;;;;5052031;28;20212;-44
2021/06/17 06:25:36;;;;;;;8.60;7.82;;;22.00;92.90;;;;;;5052469;28;20322;-43
2021/06/17 06:28:06;;;;;;;10.80;6.97;;;22.10;92.80;;;;;;5052229;28;20308;-45
2021/06/17 06:30:34;;;;;;;7.85;7.05;;;22.10;92.70;;;;;;5052205;28;20239;-42
2021/06/17 06:33:02;;;;;;;11.93;7.95;;;22.20;92.60;;;;;;5052054;28;20208;-44
2021/06/17 06:35:30;;;;;;;8.45;7.05;;;22.30;92.40;;;;;;5051834;28;20738;-46
2021/06/17 06:37:59;;;;;;;8.93;8.10;;;22.40;92.30;;;;;;5052016;28;20639;-48
2021/06/17 06:40:27;;;;;;;8.20;7.47;;;22.50;92.20;;;;;;5052046;28;20744;-42
2021/06/17 06:42:56;;;;;;;10.23;8.38;;;22.60;92.10;;;;;;5052000;28;20239;-44
2021/06/17 06:45:25;;;;;;;10.05;7.97;;;22.70;91.90;;;;;;5051749;28;20214;-48
2021/06/17 06:47:53;;;;;;;8.88;7.97;;;22.70;91.80;;;;;;5051886;28;20254;-47
2021/06/17 06:50:21;;;;;;;9.60;7.88;;;22.70;91.80;;;;;;5051662;28;20301;-47
2021/06/17 06:52:50;;;;;;;11.73;8.77;;;22.70;91.50;;;;;;5051820;28;20294;-45
2021/06/17 06:55:19;;;;;;;15.73;8.70;;;22.80;91.50;;;;;;5051719;28;20294;-43
2021/06/17 06:57:48;;;;;;;8.85;7.50;;;22.80;91.50;;;;;;5051409;28;20299;-43
2021/06/17 07:00:17;;;;;;;11.70;9.02;;;23.00;91.50;;;;;;5051552;28;20270;-48
2021/06/17 07:02:46;;;;;;;10.52;8.40;;;23.10;91.30;;;;;;5050991;28;20212;-45
2021/06/17 07:05:14;;;;;;;9.50;8.50;;;23.30;91.00;;;;;;5051481;28;20231;-46
2021/06/17 07:07:42;;;;;;;11.02;8.70;;;23.40;90.80;;;;;;5051811;28;20214;-45
2021/06/17 07:10:11;;;;;;;11.23;8.48;;;23.40;90.70;;;;;;5051717;28;20204;-43
2021/06/17 07:12:42;;;;;;;8.27;7.63;;;23.50;90.50;;;;;;5051665;28;20262;-48
2021/06/17 07:15:12;;;;;;;10.60;7.32;;;23.50;90.40;;;;;;5051698;28;20208;-46
2021/06/17 07:17:40;;;;;;;9.98;7.88;;;23.60;90.20;;;;;;5051542;28;20215;-45
2021/06/17 07:20:09;;;;;;;12.88;9.40;;;23.60;90.30;;;;;;5051472;28;20262;-45
2021/06/17 07:22:37;;;;;;;10.38;8.68;;;23.60;90.40;;;;;;5051409;28;20235;-44
2021/06/17 07:25:06;;;;;;;10.02;7.93;;;23.70;90.40;;;;;;5051679;28;20222;-44
2021/06/17 07:27:34;;;;;;;12.40;7.72;;;23.70;90.20;;;;;;5051781;28;20227;-44
2021/06/17 07:30:05;;;;;;;8.18;7.38;;;23.90;90.00;;;;;;5051616;28;20588;-46
2021/06/17 07:32:33;;;;;;;8.02;7.10;;;24.00;89.50;;;;;;5051598;28;20211;-44
2021/06/17 07:35:01;;;;;;;15.57;8.27;;;24.10;89.40;;;;;;5051400;28;20299;-44
2021/06/17 07:37:29;;;;;;;9.32;8.43;;;24.30;89.40;;;;;;5051847;28;20634;-44
2021/06/17 07:39:57;;;;;;;14.45;7.82;;;24.40;89.20;;;;;;5051361;28;20262;-46
2021/06/17 07:42:25;;;;;;;7.82;6.88;;;24.50;88.90;;;;;;5051594;28;20214;-44
2021/06/17 07:44:53;;;;;;;7.85;7.07;;;24.70;88.20;;;;;;5051615;28;20291;-44
2021/06/17 07:47:23;;;;;;;8.88;7.18;;;24.80;87.70;;;;;;5051515;28;20215;-43
2021/06/17 07:49:51;;;;;;;10.05;6.65;;;24.90;87.20;;;;;;5051681;28;20287;-45
2021/06/17 07:52:19;;;;;;;9.48;7.20;;;25.00;86.70;;;;;;5051576;28;20294;-47
2021/06/17 07:54:49;;;;;;;8.60;6.93;;;25.10;86.10;;;;;;5050957;28;20204;-45
2021/06/17 07:57:17;;;;;;;12.35;6.50;;;25.20;85.60;;;;;;5051508;28;20208;-44
2021/06/17 07:59:45;;;;;;;7.43;6.57;;;25.30;85.20;;;;;;5051451;28;20223;-44
2021/06/17 08:02:13;;;;;;;7.07;6.38;;;25.40;84.90;;;;;;5051610;28;20208;-45
2021/06/17 08:04:42;;;;;;;6.63;6.05;;;25.40;84.60;;;;;;5051514;28;20746;-44
2021/06/17 08:07:10;;;;;;;13.23;6.43;;;25.50;84.20;;;;;;5051475;28;20315;-44
2021/06/17 08:09:38;;;;;;;9.20;6.38;;;25.60;83.40;;;;;;5051065;28;20212;-44
2021/06/17 08:12:07;;;;;;;6.32;5.50;;;25.70;83.00;;;;;;5051264;28;20251;-44
2021/06/17 08:14:35;;;;;;;8.32;6.10;;;25.70;82.40;;;;;;5053841;28;20211;-46
2021/06/17 08:17:04;;;;;;;5.97;5.43;;;25.80;82.00;;;;;;5054712;28;20302;-46
2021/06/17 08:19:32;;;;;;;11.45;6.25;;;25.90;81.90;;;;;;5054871;28;20286;-44
2021/06/17 08:22:04;;;;;;;5.85;5.32;;;26.00;81.60;;;;;;5054935;28;20240;-44
2021/06/17 08:24:33;;;;;;;9.25;5.35;;;26.10;82.10;;;;;;5054957;28;20299;-44
2021/06/17 08:27:01;;;;;;;9.57;5.30;;;26.20;81.10;;;;;;5054875;28;20211;-44
2021/06/17 08:29:29;;;;;;;7.10;5.00;;;26.30;81.00;;;;;;5054761;28;20215;-46
2021/06/17 08:31:57;;;;;;;6.13;5.32;;;26.40;81.10;;;;;;5054806;28;20612;-46
2021/06/17 08:34:28;;;;;;;7.47;5.70;;;26.40;80.80;;;;;;5054755;28;20208;-45
2021/06/17 08:36:57;;;;;;;7.78;5.13;;;26.30;81.40;;;;;;5054653;28;20635;-45
2021/06/17 08:39:28;;;;;;;6.38;5.63;;;26.30;82.30;;;;;;5054816;28;20584;-47
2021/06/17 08:42:00;;;;;;;7.45;5.57;;;26.40;82.50;;;;;;5054819;28;20405;-45
2021/06/17 08:44:29;;;;;;;9.82;7.45;;;26.50;82.40;;;;;;5054355;28;20204;-45
2021/06/17 08:46:58;;;;;;;5.60;5.00;;;26.60;82.00;;;;;;5054539;28;20248;-45
2021/06/17 08:49:27;;;;;;;11.00;5.70;;;26.70;81.70;;;;;;5054991;28;20571;-46
2021/06/17 08:51:57;;;;;;;6.57;5.05;;;26.90;81.20;;;;;;5054623;28;20248;-45
2021/06/17 08:54:29;;;;;;;7.88;5.20;;;27.00;80.70;;;;;;5054854;28;20291;-46
2021/06/17 08:56:59;;;;;;;10.07;5.43;;;27.00;80.40;;;;;;5054670;28;20303;-47
2021/06/17 08:59:33;;;;;;;6.18;5.68;;;27.00;79.90;;;;;;5053980;28;20216;-47
2021/06/17 09:02:01;;;;;;;9.00;5.60;;;27.10;79.40;;;;;;5054272;28;20232;-48
2021/06/17 09:04:30;;;;;;;7.25;5.30;;;27.10;78.90;;;;;;5054404;28;20235;-45
2021/06/17 09:07:04;;;;;;;6.85;5.65;;;27.10;79.00;;;;;;5054194;28;20287;-46
2021/06/17 09:09:35;;;;;;;7.32;5.10;;;27.10;79.30;;;;;;5053983;28;20846;-44
2021/06/17 09:12:04;;;;;;;6.50;5.00;;;27.10;79.30;;;;;;5053930;28;20554;-46
2021/06/17 09:14:33;;;;;;;8.93;4.80;;;27.20;79.10;;;;;;5054080;28;20219;-45
2021/06/17 09:17:04;;;;;;;7.18;5.38;;;27.40;78.30;;;;;;5053854;28;20330;-50
2021/06/17 09:19:50;;;;;;;4.43;4.03;;;27.50;77.20;;;;;;5053876;28;20222;-45
2021/06/17 09:22:20;;;;;;;8.80;5.00;;;27.50;74.90;;;;;;5053288;28;20296;-45
2021/06/17 09:24:51;;;;;;;5.55;4.50;;;27.60;74.40;;;;;;5053310;28;20298;-46
2021/06/17 09:27:27;;;;;;;7.32;6.72;;;27.70;73.50;;;;;;5053639;28;20219;-44
2021/06/17 09:29:57;;;;;;;3.92;3.63;;;27.70;73.00;;;;;;5053524;28;20211;-47
2021/06/17 09:32:27;;;;;;;7.43;4.43;;;27.70;72.20;;;;;;5053685;28;20630;-44
2021/06/17 09:34:56;;;;;;;9.10;4.30;;;27.80;71.80;;;;;;5053472;28;20307;-45
2021/06/17 09:37:31;;;;;;;6.57;4.50;;;27.80;71.40;;;;;;5053821;28;20236;-46
2021/06/17 09:40:16;;;;;;;6.95;4.32;;;27.90;71.30;;;;;;5053512;28;20227;-44
2021/06/17 09:42:44;;;;;;;6.47;4.40;;;28.00;71.30;;;;;;5053343;28;20207;-46
2021/06/17 09:45:17;;;;;;;5.47;4.32;;;28.10;71.00;;;;;;5053402;28;20762;-45
2021/06/17 09:47:45;;;;;;;11.35;4.28;;;28.10;70.40;;;;;;5053653;28;20199;-46
2021/06/17 09:50:24;;;;;;;8.27;4.43;;;28.20;69.90;;;;;;5053469;28;20212;-44
2021/06/17 09:52:53;;;;;;;9.15;5.18;;;28.20;69.30;;;;;;5053361;28;20298;-46
2021/06/17 09:55:40;;;;;;;5.43;4.03;;;28.30;69.20;;;;;;5052520;28;20303;-46
2021/06/17 09:58:11;;;;;;;6.75;5.03;;;28.40;68.50;;;;;;5052859;28;20212;-45
2021/06/17 10:00:54;;;;;;;6.47;4.22;;;28.50;68.10;;;;;;5053140;28;20208;-47
2021/06/17 10:03:23;;;;;;;10.52;9.52;;;28.60;67.40;;;;;;5053440;28;20232;-45
2021/06/17 10:05:51;;;;;;;4.60;4.07;;;28.70;67.00;;;;;;5053043;28;20212;-46
2021/06/17 10:08:19;;;;;;;7.55;4.03;;;28.90;66.30;;;;;;5052824;28;20270;-45
2021/06/17 10:10:48;;;;;;;8.18;4.55;;;29.00;65.60;;;;;;5053062;28;20200;-46
2021/06/17 10:13:17;;;;;;;7.47;3.75;;;29.00;65.10;;;;;;5053026;28;20304;-45
2021/06/17 10:15:46;;;;;;;10.18;4.50;;;29.10;64.40;;;;;;5052886;28;20258;-45
2021/06/17 10:18:14;;;;;;;4.78;3.80;;;29.10;63.40;;;;;;5052720;28;20229;-45
2021/06/17 10:20:42;;;;;;;4.93;3.83;;;29.20;62.30;;;;;;5052292;28;20697;-47
2021/06/17 10:23:14;;;;;;;5.57;3.95;;;29.30;61.50;;;;;;5052577;28;20204;-45
2021/06/17 10:25:46;;;;;;;3.83;3.53;;;29.40;61.30;;;;;;5052706;28;20222;-49
2021/06/17 10:28:42;;;;;;;4.88;3.60;;;29.40;60.30;;;;;;5052472;28;20266;-47
2021/06/17 10:31:11;;;;;;;3.88;3.58;;;29.50;58.80;;;;;;5052380;28;20204;-46
2021/06/17 10:33:40;;;;;;;4.38;3.60;;;29.60;58.90;;;;;;5052420;28;20216;-47
2021/06/17 10:36:25;;;;;;;4.07;3.78;;;29.60;58.40;;;;;;5052672;28;20307;-49
2021/06/17 10:39:15;;;;;;;5.60;5.10;;;29.70;57.70;;;;;;5052859;28;20629;-45
2021/06/17 10:42:14;;;;;;;4.47;3.75;;;29.70;58.10;;;;;;5041769;28;20806;-45
2021/06/17 10:44:52;;;;;;;8.50;5.18;;;29.80;57.90;;;;;;5052033;28;20208;-48
2021/06/17 10:48:11;;;;;;;5.25;3.72;;;29.90;57.80;;;;;;5052306;28;20211;-46
2021/06/17 10:50:51;;;;;;;5.93;3.60;;;29.90;57.40;;;;;;5052236;28;20291;-46
2021/06/17 10:53:52;;;;;;;3.60;3.38;;;29.70;57.40;;;;;;5051994;28;20226;-47
2021/06/17 10:56:25;;;;;;;4.78;3.63;;;29.70;57.40;;;;;;5051902;28;20311;-49
2021/06/17 10:59:02;;;;;;;2.85;2.63;;;29.70;57.60;;;;;;5052173;28;20303;-48
2021/06/17 11:01:40;;;;;;;3.65;2.70;;;29.80;56.70;;;;;;5051962;28;20235;-48
2021/06/17 11:04:38;;;;;;;4.18;3.28;;;29.80;56.20;;;;;;5051938;28;20211;-46
2021/06/17 11:07:17;;;;;;;4.15;3.50;;;29.90;55.30;;;;;;5051617;28;20294;-45
2021/06/17 11:10:09;;;;;;;9.32;3.97;;;30.00;55.00;;;;;;5051899;28;20579;-47
2021/06/17 11:12:57;;;;;;;11.65;4.00;;;30.10;54.50;;;;;;5051916;28;20710;-45
2021/06/17 11:15:46;;;;;;;5.88;3.72;;;30.20;54.00;;;;;;5051815;28;20212;-45
2021/06/17 11:18:36;;;;;;;5.22;3.70;;;30.30;53.70;;;;;;5051915;28;20208;-47
2021/06/17 11:21:05;;;;;;;14.95;4.65;;;30.30;53.80;;;;;;5051522;28;20246;-46
2021/06/17 11:23:33;;;;;;;5.15;3.53;;;30.30;53.50;;;;;;5051622;28;20298;-46
2021/06/17 11:26:05;;;;;;;4.53;3.15;;;30.40;53.30;;;;;;5051836;28;20554;-47
2021/06/17 11:28:57;;;;;;;4.05;3.30;;;30.40;53.30;;;;;;5051865;28;20214;-45
2021/06/17 11:31:39;;;;;;;3.40;2.80;;;30.50;52.30;;;;;;5032318;28;20294;-45
2021/06/17 11:34:07;;;;;;;4.72;2.72;;;30.50;52.20;;;;;;5051758;28;20338;-44
2021/06/17 11:36:48;;;;;;;4.32;2.58;;;30.50;52.20;;;;;;5051765;28;20357;-45
2021/06/17 11:39:21;;;;;;;11.18;3.50;;;30.50;51.90;;;;;;5051563;28;20211;-45
2021/06/17 11:42:00;;;;;;;10.15;3.30;;;30.50;51.50;;;;;;5051859;28;20220;-44
2021/06/17 11:44:29;;;;;;;5.13;3.00;;;30.60;51.00;;;;;;5051460;28;20306;-46
2021/06/17 11:47:05;;;;;;;2.88;2.50;;;30.60;50.10;;;;;;5051704;28;20204;-45
2021/06/17 11:49:36;;;;;;;4.15;2.97;;;30.60;49.80;;;;;;5054309;28;20211;-46
2021/06/17 11:52:14;;;;;;;5.15;3.28;;;30.60;49.80;;;;;;5055599;28;20298;-44
2021/06/17 11:54:42;;;;;;;3.15;2.90;;;30.60;49.50;;;;;;5055224;28;20299;-45
2021/06/17 11:57:12;;;;;;;3.95;2.58;;;30.70;49.60;;;;;;5055226;28;20239;-44
2021/06/17 11:59:42;;;;;;;2.58;2.38;;;30.70;49.40;;;;;;5055529;28;20262;-47
2021/06/17 12:02:17;;;;;;;4.53;2.67;;;30.70;49.10;;;;;;5055268;28;20323;-45
2021/06/17 12:04:59;;;;;;;2.92;2.72;;;30.70;49.10;;;;;;5055118;28;20215;-46
2021/06/17 12:07:31;;;;;;;5.75;2.72;;;30.70;48.80;;;;;;5055080;28;20660;-46
2021/06/17 12:10:11;;;;;;;3.80;3.15;;;30.70;48.80;;;;;;5055348;28;20273;-46
2021/06/17 12:12:46;;;;;;;7.63;2.88;;;30.80;48.80;;;;;;5055085;28;20207;-46
2021/06/17 12:15:18;;;;;;;3.58;2.85;;;30.80;48.70;;;;;;5055181;28;20219;-47
2021/06/17 12:17:48;;;;;;;4.35;2.65;;;30.80;48.90;;;;;;5054868;28;20214;-47
2021/06/17 12:20:19;;;;;;;3.95;2.70;;;30.80;49.00;;;;;;5055087;28;20214;-50
2021/06/17 12:23:06;;;;;;;3.17;2.88;;;30.80;49.20;;;;;;5054733;28;20236;-45
2021/06/17 12:25:36;;;;;;;3.72;2.78;;;30.80;48.30;;;;;;5054811;28;20212;-46
2021/06/17 12:28:06;;;;;;;4.78;2.60;;;30.80;48.70;;;;;;5054644;28;20230;-48
2021/06/17 12:30:36;;;;;;;2.85;2.63;;;30.70;49.10;;;;;;5054628;28;20212;-49
2021/06/17 12:33:08;;;;;;;4.18;2.80;;;30.90;49.30;;;;;;5054646;28;20397;-49
2021/06/17 12:35:45;;;;;;;3.97;2.75;;;30.90;49.00;;;;;;5054681;28;20291;-46
2021/06/17 12:38:23;;;;;;;4.78;2.40;;;31.10;48.50;;;;;;5054559;28;20209;-49
2021/06/17 12:40:51;;;;;;;4.32;2.53;;;31.20;47.60;;;;;;5054602;28;20216;-47
2021/06/17 12:43:24;;;;;;;6.00;2.75;;;31.30;47.30;;;;;;5054253;28;20316;-46
2021/06/17 12:46:04;;;;;;;2.50;2.30;;;31.30;46.60;;;;;;5054272;28;20212;-48
2021/06/17 12:49:10;;;;;;;4.38;2.47;;;31.40;45.80;;;;;;5054447;28;20298;-49
2021/06/17 12:52:05;;;;;;;4.70;2.63;;;31.40;46.00;;;;;;5054402;28;20287;-51
2021/06/17 12:54:42;;;;;;;2.75;2.30;;;31.50;45.40;;;;;;5053991;28;20212;-51
2021/06/17 12:57:15;;;;;;;4.28;2.92;;;31.60;45.10;;;;;;5053916;28;20212;-52
2021/06/17 12:59:46;;;;;;;2.72;2.35;;;31.70;44.50;;;;;;5053437;28;20215;-50
2021/06/17 13:02:16;;;;;;;2.83;2.30;;;31.80;44.20;;;;;;5053848;28;20235;-49
2021/06/17 13:05:00;;;;;;;4.78;2.78;;;31.80;43.50;;;;;;5054059;28;20567;-51
2021/06/17 13:07:30;;;;;;;2.92;2.72;;;31.90;43.60;;;;;;5053853;28;20211;-48
2021/06/17 13:10:13;;;;;;;3.40;2.97;;;31.90;43.40;;;;;;5054096;28;20553;-48
2021/06/17 13:12:47;;;;;;;3.78;2.35;;;32.00;43.30;;;;;;5053889;28;20636;-49